sensor_id;sensor_type;location;lat;lon;timestamp;P1;durP1;ratioP1;P2;durP2;ratioP2
46308;SDS011;32037;50.820;6.494;2023-11-21T00:00:51;1.50;;;0.70;;
46308;SDS011;32037;50.820;6.494;2023-11-21T00:03:19;2.20;;;1.20;;
46308;SDS011;32037;50.820;6.494;2023-11-21T00:05:50;2.10;;;1.47;;
46308;SDS011;32037;50.820;6.494;2023-11-21T00:08:18;2.63;;;1.10;;
46308;SDS011;32037;50.820;6.494;2023-11-21T00:10:46;2.50;;;1.33;;
46308;SDS011;32037;50.820;6.494;2023-11-21T00:13:15;1.20;;;0.83;;
46308;SDS011;32037;50.820;6.494;2023-11-21T00:15:44;1.70;;;0.90;;
46308;SDS011;32037;50.820;6.494;2023-11-21T00:18:13;2.90;;;0.80;;
46308;SDS011;32037;50.820;6.494;2023-11-21T00:20:43;1.93;;;0.80;;
46308;SDS011;32037;50.820;6.494;2023-11-21T00:23:11;1.87;;;0.97;;
46308;SDS011;32037;50.820;6.494;2023-11-21T00:25:39;2.80;;;0.90;;
46308;SDS011;32037;50.820;6.494;2023-11-21T00:28:07;1.70;;;1.00;;
46308;SDS011;32037;50.820;6.494;2023-11-21T00:30:35;2.17;;;1.30;;
46308;SDS011;32037;50.820;6.494;2023-11-21T00:33:03;1.60;;;1.00;;
46308;SDS011;32037;50.820;6.494;2023-11-21T00:35:33;2.67;;;1.00;;
46308;SDS011;32037;50.820;6.494;2023-11-21T00:38:01;1.40;;;0.80;;
46308;SDS011;32037;50.820;6.494;2023-11-21T00:40:31;1.40;;;0.70;;
46308;SDS011;32037;50.820;6.494;2023-11-21T00:43:00;1.70;;;0.87;;
46308;SDS011;32037;50.820;6.494;2023-11-21T00:45:31;1.30;;;0.80;;
46308;SDS011;32037;50.820;6.494;2023-11-21T00:48:00;1.90;;;1.20;;
46308;SDS011;32037;50.820;6.494;2023-11-21T00:50:29;1.87;;;1.13;;
46308;SDS011;32037;50.820;6.494;2023-11-21T00:52:58;1.20;;;0.80;;
46308;SDS011;32037;50.820;6.494;2023-11-21T00:55:26;1.40;;;0.80;;
46308;SDS011;32037;50.820;6.494;2023-11-21T00:57:56;1.70;;;1.00;;
46308;SDS011;32037;50.820;6.494;2023-11-21T01:00:24;1.30;;;1.03;;
46308;SDS011;32037;50.820;6.494;2023-11-21T01:02:53;2.60;;;1.90;;
46308;SDS011;32037;50.820;6.494;2023-11-21T01:05:24;2.60;;;1.90;;
46308;SDS011;32037;50.820;6.494;2023-11-21T01:07:53;1.70;;;1.00;;
46308;SDS011;32037;50.820;6.494;2023-11-21T01:10:22;2.27;;;1.40;;
46308;SDS011;32037;50.820;6.494;2023-11-21T01:12:51;3.23;;;1.80;;
46308;SDS011;32037;50.820;6.494;2023-11-21T01:15:19;2.27;;;1.20;;
46308;SDS011;32037;50.820;6.494;2023-11-21T01:17:47;1.67;;;1.00;;
46308;SDS011;32037;50.820;6.494;2023-11-21T01:20:16;2.00;;;1.30;;
46308;SDS011;32037;50.820;6.494;2023-11-21T01:22:46;3.87;;;1.83;;
46308;SDS011;32037;50.820;6.494;2023-11-21T01:25:15;3.27;;;2.00;;
46308;SDS011;32037;50.820;6.494;2023-11-21T01:27:45;1.47;;;0.97;;
46308;SDS011;32037;50.820;6.494;2023-11-21T01:30:13;1.83;;;1.63;;
46308;SDS011;32037;50.820;6.494;2023-11-21T01:32:42;2.50;;;1.50;;
46308;SDS011;32037;50.820;6.494;2023-11-21T01:35:11;2.30;;;1.37;;
46308;SDS011;32037;50.820;6.494;2023-11-21T01:37:39;3.60;;;2.17;;
46308;SDS011;32037;50.820;6.494;2023-11-21T01:40:09;4.27;;;2.80;;
46308;SDS011;32037;50.820;6.494;2023-11-21T01:42:41;3.53;;;1.77;;
46308;SDS011;32037;50.820;6.494;2023-11-21T01:45:12;2.70;;;1.63;;
46308;SDS011;32037;50.820;6.494;2023-11-21T01:47:41;3.87;;;1.67;;
46308;SDS011;32037;50.820;6.494;2023-11-21T01:50:15;2.20;;;1.73;;
46308;SDS011;32037;50.820;6.494;2023-11-21T01:52:45;2.50;;;1.10;;
46308;SDS011;32037;50.820;6.494;2023-11-21T01:55:13;2.87;;;1.80;;
46308;SDS011;32037;50.820;6.494;2023-11-21T01:57:53;2.50;;;1.47;;
46308;SDS011;32037;50.820;6.494;2023-11-21T02:00:24;1.77;;;1.43;;
46308;SDS011;32037;50.820;6.494;2023-11-21T02:02:55;3.83;;;1.10;;
46308;SDS011;32037;50.820;6.494;2023-11-21T02:05:24;1.80;;;1.50;;
46308;SDS011;32037;50.820;6.494;2023-11-21T02:07:52;2.87;;;1.30;;
46308;SDS011;32037;50.820;6.494;2023-11-21T02:10:21;2.30;;;1.70;;
46308;SDS011;32037;50.820;6.494;2023-11-21T02:12:51;3.40;;;1.27;;
46308;SDS011;32037;50.820;6.494;2023-11-21T02:15:20;2.13;;;1.33;;
46308;SDS011;32037;50.820;6.494;2023-11-21T02:17:50;1.83;;;1.30;;
46308;SDS011;32037;50.820;6.494;2023-11-21T02:20:20;2.87;;;1.37;;
46308;SDS011;32037;50.820;6.494;2023-11-21T02:22:54;1.87;;;1.17;;
46308;SDS011;32037;50.820;6.494;2023-11-21T02:25:26;2.00;;;1.40;;
46308;SDS011;32037;50.820;6.494;2023-11-21T02:27:56;2.83;;;1.37;;
46308;SDS011;32037;50.820;6.494;2023-11-21T02:30:24;1.70;;;1.00;;
46308;SDS011;32037;50.820;6.494;2023-11-21T02:32:54;3.67;;;1.37;;
46308;SDS011;32037;50.820;6.494;2023-11-21T02:35:25;2.53;;;1.10;;
46308;SDS011;32037;50.820;6.494;2023-11-21T02:37:55;2.33;;;1.00;;
46308;SDS011;32037;50.820;6.494;2023-11-21T02:40:23;1.60;;;1.07;;
46308;SDS011;32037;50.820;6.494;2023-11-21T02:42:53;3.00;;;1.37;;
46308;SDS011;32037;50.820;6.494;2023-11-21T02:45:22;2.17;;;1.03;;
46308;SDS011;32037;50.820;6.494;2023-11-21T02:47:51;2.47;;;1.37;;
46308;SDS011;32037;50.820;6.494;2023-11-21T02:50:24;2.07;;;1.30;;
46308;SDS011;32037;50.820;6.494;2023-11-21T02:52:54;3.77;;;1.93;;
46308;SDS011;32037;50.820;6.494;2023-11-21T02:55:24;1.80;;;1.33;;
46308;SDS011;32037;50.820;6.494;2023-11-21T02:57:53;2.33;;;1.40;;
46308;SDS011;32037;50.820;6.494;2023-11-21T03:00:22;2.10;;;1.30;;
46308;SDS011;32037;50.820;6.494;2023-11-21T03:02:52;3.23;;;2.33;;
46308;SDS011;32037;50.820;6.494;2023-11-21T03:05:22;2.80;;;1.67;;
46308;SDS011;32037;50.820;6.494;2023-11-21T03:07:50;2.67;;;1.90;;
46308;SDS011;32037;50.820;6.494;2023-11-21T03:10:19;1.83;;;1.10;;
46308;SDS011;32037;50.820;6.494;2023-11-21T03:12:48;2.10;;;1.43;;
46308;SDS011;32037;50.820;6.494;2023-11-21T03:15:16;2.83;;;1.50;;
46308;SDS011;32037;50.820;6.494;2023-11-21T03:17:44;2.20;;;1.23;;
46308;SDS011;32037;50.820;6.494;2023-11-21T03:20:16;2.10;;;1.57;;
46308;SDS011;32037;50.820;6.494;2023-11-21T03:22:44;3.60;;;1.70;;
46308;SDS011;32037;50.820;6.494;2023-11-21T03:25:12;1.97;;;1.30;;
46308;SDS011;32037;50.820;6.494;2023-11-21T03:27:42;4.47;;;2.57;;
46308;SDS011;32037;50.820;6.494;2023-11-21T03:30:11;4.60;;;3.03;;
46308;SDS011;32037;50.820;6.494;2023-11-21T03:32:41;3.10;;;1.93;;
46308;SDS011;32037;50.820;6.494;2023-11-21T03:35:09;2.27;;;1.40;;
46308;SDS011;32037;50.820;6.494;2023-11-21T03:37:37;3.53;;;1.97;;
46308;SDS011;32037;50.820;6.494;2023-11-21T03:40:08;1.80;;;1.10;;
46308;SDS011;32037;50.820;6.494;2023-11-21T03:42:39;1.70;;;1.10;;
46308;SDS011;32037;50.820;6.494;2023-11-21T03:45:09;2.23;;;1.23;;
46308;SDS011;32037;50.820;6.494;2023-11-21T03:47:39;1.80;;;1.50;;
46308;SDS011;32037;50.820;6.494;2023-11-21T03:50:08;2.97;;;1.67;;
46308;SDS011;32037;50.820;6.494;2023-11-21T03:52:37;2.37;;;1.33;;
46308;SDS011;32037;50.820;6.494;2023-11-21T03:55:05;2.10;;;0.93;;
46308;SDS011;32037;50.820;6.494;2023-11-21T03:57:34;3.17;;;1.40;;
46308;SDS011;32037;50.820;6.494;2023-11-21T04:00:03;1.30;;;0.83;;
46308;SDS011;32037;50.820;6.494;2023-11-21T04:02:38;1.90;;;1.20;;
46308;SDS011;32037;50.820;6.494;2023-11-21T04:05:07;2.60;;;1.60;;
46308;SDS011;32037;50.820;6.494;2023-11-21T04:07:36;2.60;;;1.43;;
46308;SDS011;32037;50.820;6.494;2023-11-21T04:10:05;1.60;;;1.13;;
46308;SDS011;32037;50.820;6.494;2023-11-21T04:12:35;1.80;;;1.10;;
46308;SDS011;32037;50.820;6.494;2023-11-21T04:15:03;1.97;;;1.13;;
46308;SDS011;32037;50.820;6.494;2023-11-21T04:17:31;1.77;;;1.10;;
46308;SDS011;32037;50.820;6.494;2023-11-21T04:20:01;2.80;;;1.27;;
46308;SDS011;32037;50.820;6.494;2023-11-21T04:22:29;2.00;;;1.23;;
46308;SDS011;32037;50.820;6.494;2023-11-21T04:24:57;2.27;;;1.60;;
46308;SDS011;32037;50.820;6.494;2023-11-21T04:27:25;2.53;;;1.07;;
46308;SDS011;32037;50.820;6.494;2023-11-21T04:29:54;2.30;;;1.40;;
46308;SDS011;32037;50.820;6.494;2023-11-21T04:32:22;3.40;;;1.70;;
46308;SDS011;32037;50.820;6.494;2023-11-21T04:34:50;2.10;;;1.30;;
46308;SDS011;32037;50.820;6.494;2023-11-21T04:37:19;2.90;;;1.40;;
46308;SDS011;32037;50.820;6.494;2023-11-21T04:39:47;5.00;;;1.20;;
46308;SDS011;32037;50.820;6.494;2023-11-21T04:42:15;2.13;;;1.17;;
46308;SDS011;32037;50.820;6.494;2023-11-21T04:44:44;1.60;;;1.20;;
46308;SDS011;32037;50.820;6.494;2023-11-21T04:47:12;3.30;;;1.50;;
46308;SDS011;32037;50.820;6.494;2023-11-21T04:49:41;2.73;;;1.40;;
46308;SDS011;32037;50.820;6.494;2023-11-21T04:52:10;3.43;;;2.07;;
46308;SDS011;32037;50.820;6.494;2023-11-21T04:54:39;1.50;;;0.70;;
46308;SDS011;32037;50.820;6.494;2023-11-21T04:57:07;2.53;;;1.20;;
46308;SDS011;32037;50.820;6.494;2023-11-21T04:59:36;2.73;;;1.80;;
46308;SDS011;32037;50.820;6.494;2023-11-21T05:02:04;2.40;;;1.23;;
46308;SDS011;32037;50.820;6.494;2023-11-21T05:04:32;3.27;;;2.00;;
46308;SDS011;32037;50.820;6.494;2023-11-21T05:07:00;4.93;;;1.17;;
46308;SDS011;32037;50.820;6.494;2023-11-21T05:09:29;1.40;;;0.93;;
46308;SDS011;32037;50.820;6.494;2023-11-21T05:12:01;2.50;;;1.90;;
46308;SDS011;32037;50.820;6.494;2023-11-21T05:14:29;2.00;;;1.20;;
46308;SDS011;32037;50.820;6.494;2023-11-21T05:16:57;2.33;;;1.50;;
46308;SDS011;32037;50.820;6.494;2023-11-21T05:19:26;3.20;;;1.70;;
46308;SDS011;32037;50.820;6.494;2023-11-21T05:21:55;1.90;;;1.10;;
46308;SDS011;32037;50.820;6.494;2023-11-21T05:24:23;4.70;;;1.50;;
46308;SDS011;32037;50.820;6.494;2023-11-21T05:26:51;1.97;;;1.20;;
46308;SDS011;32037;50.820;6.494;2023-11-21T05:29:20;2.10;;;1.50;;
46308;SDS011;32037;50.820;6.494;2023-11-21T05:31:48;1.80;;;1.20;;
46308;SDS011;32037;50.820;6.494;2023-11-21T05:34:17;1.90;;;1.40;;
46308;SDS011;32037;50.820;6.494;2023-11-21T05:36:47;3.53;;;1.80;;
46308;SDS011;32037;50.820;6.494;2023-11-21T05:39:15;5.30;;;2.93;;
46308;SDS011;32037;50.820;6.494;2023-11-21T05:41:43;3.20;;;1.93;;
46308;SDS011;32037;50.820;6.494;2023-11-21T05:44:15;4.60;;;2.40;;
46308;SDS011;32037;50.820;6.494;2023-11-21T05:46:44;2.03;;;1.43;;
46308;SDS011;32037;50.820;6.494;2023-11-21T05:49:12;1.80;;;1.33;;
46308;SDS011;32037;50.820;6.494;2023-11-21T05:51:42;3.20;;;1.53;;
46308;SDS011;32037;50.820;6.494;2023-11-21T05:54:11;1.90;;;1.23;;
46308;SDS011;32037;50.820;6.494;2023-11-21T05:56:39;3.00;;;1.37;;
46308;SDS011;32037;50.820;6.494;2023-11-21T05:59:07;1.93;;;1.20;;
46308;SDS011;32037;50.820;6.494;2023-11-21T06:01:36;4.00;;;1.57;;
46308;SDS011;32037;50.820;6.494;2023-11-21T06:04:06;2.07;;;1.23;;
46308;SDS011;32037;50.820;6.494;2023-11-21T06:06:36;2.10;;;1.20;;
46308;SDS011;32037;50.820;6.494;2023-11-21T06:09:06;2.30;;;1.33;;
46308;SDS011;32037;50.820;6.494;2023-11-21T06:11:35;1.27;;;0.90;;
46308;SDS011;32037;50.820;6.494;2023-11-21T06:14:03;2.07;;;1.27;;
46308;SDS011;32037;50.820;6.494;2023-11-21T06:16:34;4.60;;;1.70;;
46308;SDS011;32037;50.820;6.494;2023-11-21T06:19:02;3.23;;;1.27;;
46308;SDS011;32037;50.820;6.494;2023-11-21T06:21:33;2.17;;;1.13;;
46308;SDS011;32037;50.820;6.494;2023-11-21T06:24:01;3.10;;;2.03;;
46308;SDS011;32037;50.820;6.494;2023-11-21T06:26:30;3.03;;;1.60;;
46308;SDS011;32037;50.820;6.494;2023-11-21T06:28:58;2.20;;;1.17;;
46308;SDS011;32037;50.820;6.494;2023-11-21T06:31:27;1.73;;;1.13;;
46308;SDS011;32037;50.820;6.494;2023-11-21T06:33:55;2.00;;;1.30;;
46308;SDS011;32037;50.820;6.494;2023-11-21T06:36:26;2.47;;;1.03;;
46308;SDS011;32037;50.820;6.494;2023-11-21T06:38:55;1.70;;;1.00;;
46308;SDS011;32037;50.820;6.494;2023-11-21T06:41:23;2.17;;;1.47;;
46308;SDS011;32037;50.820;6.494;2023-11-21T06:43:51;2.00;;;1.20;;
46308;SDS011;32037;50.820;6.494;2023-11-21T06:46:19;2.70;;;1.13;;
46308;SDS011;32037;50.820;6.494;2023-11-21T06:48:47;1.43;;;0.80;;
46308;SDS011;32037;50.820;6.494;2023-11-21T06:51:16;1.50;;;1.00;;
46308;SDS011;32037;50.820;6.494;2023-11-21T06:53:46;4.70;;;2.57;;
46308;SDS011;32037;50.820;6.494;2023-11-21T06:56:18;2.20;;;1.13;;
46308;SDS011;32037;50.820;6.494;2023-11-21T06:58:46;2.70;;;1.67;;
46308;SDS011;32037;50.820;6.494;2023-11-21T07:01:15;3.07;;;1.60;;
46308;SDS011;32037;50.820;6.494;2023-11-21T07:03:43;1.67;;;1.10;;
46308;SDS011;32037;50.820;6.494;2023-11-21T07:06:12;2.10;;;1.23;;
46308;SDS011;32037;50.820;6.494;2023-11-21T07:08:44;3.00;;;1.37;;
46308;SDS011;32037;50.820;6.494;2023-11-21T07:11:14;1.97;;;1.30;;
46308;SDS011;32037;50.820;6.494;2023-11-21T07:13:44;5.23;;;2.43;;
46308;SDS011;32037;50.820;6.494;2023-11-21T07:16:15;1.90;;;1.20;;
46308;SDS011;32037;50.820;6.494;2023-11-21T07:18:45;2.13;;;1.20;;
46308;SDS011;32037;50.820;6.494;2023-11-21T07:21:15;1.80;;;1.30;;
46308;SDS011;32037;50.820;6.494;2023-11-21T07:23:43;2.00;;;1.37;;
46308;SDS011;32037;50.820;6.494;2023-11-21T07:26:11;2.10;;;1.37;;
46308;SDS011;32037;50.820;6.494;2023-11-21T07:28:39;3.17;;;1.60;;
46308;SDS011;32037;50.820;6.494;2023-11-21T07:31:11;2.93;;;1.27;;
46308;SDS011;32037;50.820;6.494;2023-11-21T07:33:40;3.10;;;1.70;;
46308;SDS011;32037;50.820;6.494;2023-11-21T07:36:08;2.47;;;1.30;;
46308;SDS011;32037;50.820;6.494;2023-11-21T07:38:38;3.47;;;1.67;;
46308;SDS011;32037;50.820;6.494;2023-11-21T07:41:06;4.50;;;2.63;;
46308;SDS011;32037;50.820;6.494;2023-11-21T07:43:51;2.43;;;1.40;;
46308;SDS011;32037;50.820;6.494;2023-11-21T07:46:21;2.70;;;1.60;;
46308;SDS011;32037;50.820;6.494;2023-11-21T07:48:50;2.67;;;1.50;;
46308;SDS011;32037;50.820;6.494;2023-11-21T07:51:18;1.83;;;1.23;;
46308;SDS011;32037;50.820;6.494;2023-11-21T07:53:46;2.27;;;1.60;;
46308;SDS011;32037;50.820;6.494;2023-11-21T07:56:14;1.97;;;1.50;;
46308;SDS011;32037;50.820;6.494;2023-11-21T07:58:43;3.80;;;1.40;;
46308;SDS011;32037;50.820;6.494;2023-11-21T08:01:12;1.80;;;1.30;;
46308;SDS011;32037;50.820;6.494;2023-11-21T08:03:41;2.73;;;1.30;;
46308;SDS011;32037;50.820;6.494;2023-11-21T08:06:10;2.57;;;1.40;;
46308;SDS011;32037;50.820;6.494;2023-11-21T08:08:38;1.97;;;1.20;;
46308;SDS011;32037;50.820;6.494;2023-11-21T08:11:06;1.90;;;1.20;;
46308;SDS011;32037;50.820;6.494;2023-11-21T08:13:36;3.67;;;1.67;;
46308;SDS011;32037;50.820;6.494;2023-11-21T08:16:04;2.90;;;1.77;;
46308;SDS011;32037;50.820;6.494;2023-11-21T08:18:34;2.30;;;1.30;;
46308;SDS011;32037;50.820;6.494;2023-11-21T08:21:03;2.30;;;1.43;;
46308;SDS011;32037;50.820;6.494;2023-11-21T08:23:32;2.80;;;2.00;;
46308;SDS011;32037;50.820;6.494;2023-11-21T08:26:04;2.83;;;1.80;;
46308;SDS011;32037;50.820;6.494;2023-11-21T08:28:32;2.27;;;1.63;;
46308;SDS011;32037;50.820;6.494;2023-11-21T08:31:03;1.80;;;1.20;;
46308;SDS011;32037;50.820;6.494;2023-11-21T08:33:31;2.80;;;1.60;;
46308;SDS011;32037;50.820;6.494;2023-11-21T08:35:59;1.90;;;1.30;;
46308;SDS011;32037;50.820;6.494;2023-11-21T08:38:32;2.80;;;1.90;;
46308;SDS011;32037;50.820;6.494;2023-11-21T08:41:04;2.10;;;1.27;;
46308;SDS011;32037;50.820;6.494;2023-11-21T08:43:34;2.90;;;1.97;;
46308;SDS011;32037;50.820;6.494;2023-11-21T08:46:06;2.83;;;2.10;;
46308;SDS011;32037;50.820;6.494;2023-11-21T08:48:35;4.83;;;2.30;;
46308;SDS011;32037;50.820;6.494;2023-11-21T08:51:04;4.00;;;1.77;;
46308;SDS011;32037;50.820;6.494;2023-11-21T08:53:34;3.20;;;1.43;;
46308;SDS011;32037;50.820;6.494;2023-11-21T08:56:02;3.37;;;2.60;;
46308;SDS011;32037;50.820;6.494;2023-11-21T08:58:30;4.50;;;3.47;;
46308;SDS011;32037;50.820;6.494;2023-11-21T09:00:59;3.73;;;2.10;;
46308;SDS011;32037;50.820;6.494;2023-11-21T09:03:27;4.33;;;2.60;;
46308;SDS011;32037;50.820;6.494;2023-11-21T09:05:57;7.27;;;2.63;;
46308;SDS011;32037;50.820;6.494;2023-11-21T09:08:26;4.10;;;2.60;;
46308;SDS011;32037;50.820;6.494;2023-11-21T09:10:57;4.90;;;2.40;;
46308;SDS011;32037;50.820;6.494;2023-11-21T09:13:25;2.90;;;1.80;;
46308;SDS011;32037;50.820;6.494;2023-11-21T09:15:53;3.60;;;2.53;;
46308;SDS011;32037;50.820;6.494;2023-11-21T09:18:22;3.17;;;2.27;;
46308;SDS011;32037;50.820;6.494;2023-11-21T09:20:50;3.37;;;2.10;;
46308;SDS011;32037;50.820;6.494;2023-11-21T09:23:18;3.53;;;2.10;;
46308;SDS011;32037;50.820;6.494;2023-11-21T09:25:46;3.13;;;2.10;;
46308;SDS011;32037;50.820;6.494;2023-11-21T09:28:20;5.80;;;3.20;;
46308;SDS011;32037;50.820;6.494;2023-11-21T09:30:48;3.73;;;3.00;;
46308;SDS011;32037;50.820;6.494;2023-11-21T09:33:20;4.03;;;2.63;;
46308;SDS011;32037;50.820;6.494;2023-11-21T09:35:48;7.10;;;2.60;;
46308;SDS011;32037;50.820;6.494;2023-11-21T09:38:19;4.20;;;2.70;;
46308;SDS011;32037;50.820;6.494;2023-11-21T09:40:47;2.90;;;2.07;;
46308;SDS011;32037;50.820;6.494;2023-11-21T09:43:17;3.80;;;2.33;;
46308;SDS011;32037;50.820;6.494;2023-11-21T09:45:47;5.67;;;4.30;;
46308;SDS011;32037;50.820;6.494;2023-11-21T09:48:19;3.60;;;1.60;;
46308;SDS011;32037;50.820;6.494;2023-11-21T09:50:48;3.30;;;2.10;;
46308;SDS011;32037;50.820;6.494;2023-11-21T09:53:21;3.00;;;2.50;;
46308;SDS011;32037;50.820;6.494;2023-11-21T09:55:51;3.87;;;2.73;;
46308;SDS011;32037;50.820;6.494;2023-11-21T09:58:21;3.30;;;2.13;;
46308;SDS011;32037;50.820;6.494;2023-11-21T10:00:55;3.20;;;2.10;;
46308;SDS011;32037;50.820;6.494;2023-11-21T10:03:25;3.53;;;2.03;;
46308;SDS011;32037;50.820;6.494;2023-11-21T10:05:55;2.93;;;1.90;;
46308;SDS011;32037;50.820;6.494;2023-11-21T10:08:26;2.63;;;1.70;;
46308;SDS011;32037;50.820;6.494;2023-11-21T10:11:12;2.73;;;1.50;;
46308;SDS011;32037;50.820;6.494;2023-11-21T10:13:42;5.40;;;2.20;;
46308;SDS011;32037;50.820;6.494;2023-11-21T10:16:15;2.87;;;1.77;;
46308;SDS011;32037;50.820;6.494;2023-11-21T10:18:48;3.87;;;2.07;;
46308;SDS011;32037;50.820;6.494;2023-11-21T10:21:29;4.43;;;2.20;;
46308;SDS011;32037;50.820;6.494;2023-11-21T10:23:57;6.80;;;2.00;;
46308;SDS011;32037;50.820;6.494;2023-11-21T10:26:25;3.40;;;1.70;;
46308;SDS011;32037;50.820;6.494;2023-11-21T10:28:57;3.47;;;2.47;;
46308;SDS011;32037;50.820;6.494;2023-11-21T10:31:27;4.20;;;2.83;;
46308;SDS011;32037;50.820;6.494;2023-11-21T10:33:57;4.30;;;2.00;;
46308;SDS011;32037;50.820;6.494;2023-11-21T10:36:39;7.53;;;4.13;;
46308;SDS011;32037;50.820;6.494;2023-11-21T10:39:07;8.38;;;4.40;;
46308;SDS011;32037;50.820;6.494;2023-11-21T10:41:36;4.83;;;3.30;;
46308;SDS011;32037;50.820;6.494;2023-11-21T10:44:06;4.10;;;2.90;;
46308;SDS011;32037;50.820;6.494;2023-11-21T10:46:39;4.80;;;2.60;;
46308;SDS011;32037;50.820;6.494;2023-11-21T10:49:09;3.60;;;2.63;;
46308;SDS011;32037;50.820;6.494;2023-11-21T10:51:42;4.10;;;2.33;;
46308;SDS011;32037;50.820;6.494;2023-11-21T10:54:11;5.10;;;2.67;;
46308;SDS011;32037;50.820;6.494;2023-11-21T10:56:39;5.13;;;2.90;;
46308;SDS011;32037;50.820;6.494;2023-11-21T10:59:12;4.07;;;2.40;;
46308;SDS011;32037;50.820;6.494;2023-11-21T11:01:49;3.50;;;2.60;;
46308;SDS011;32037;50.820;6.494;2023-11-21T11:04:20;4.07;;;2.40;;
46308;SDS011;32037;50.820;6.494;2023-11-21T11:06:56;5.83;;;2.47;;
46308;SDS011;32037;50.820;6.494;2023-11-21T11:09:34;3.73;;;2.30;;
46308;SDS011;32037;50.820;6.494;2023-11-21T11:12:03;5.73;;;2.73;;
46308;SDS011;32037;50.820;6.494;2023-11-21T11:14:35;4.60;;;2.70;;
46308;SDS011;32037;50.820;6.494;2023-11-21T11:17:09;4.30;;;2.40;;
46308;SDS011;32037;50.820;6.494;2023-11-21T11:19:38;5.20;;;2.53;;
46308;SDS011;32037;50.820;6.494;2023-11-21T11:22:08;3.70;;;2.63;;
46308;SDS011;32037;50.820;6.494;2023-11-21T11:24:55;4.43;;;2.80;;
46308;SDS011;32037;50.820;6.494;2023-11-21T11:27:50;4.40;;;2.50;;
46308;SDS011;32037;50.820;6.494;2023-11-21T11:30:26;2.60;;;1.50;;
46308;SDS011;32037;50.820;6.494;2023-11-21T11:33:11;4.37;;;2.17;;
46308;SDS011;32037;50.820;6.494;2023-11-21T11:35:55;3.70;;;2.10;;
46308;SDS011;32037;50.820;6.494;2023-11-21T11:38:31;2.57;;;1.80;;
46308;SDS011;32037;50.820;6.494;2023-11-21T11:41:01;2.70;;;1.90;;
46308;SDS011;32037;50.820;6.494;2023-11-21T11:43:33;4.10;;;2.37;;
46308;SDS011;32037;50.820;6.494;2023-11-21T11:46:13;5.00;;;2.20;;
46308;SDS011;32037;50.820;6.494;2023-11-21T11:48:45;3.90;;;2.40;;
46308;SDS011;32037;50.820;6.494;2023-11-21T11:51:13;3.20;;;2.37;;
46308;SDS011;32037;50.820;6.494;2023-11-21T11:53:43;4.40;;;2.43;;
46308;SDS011;32037;50.820;6.494;2023-11-21T11:56:18;3.13;;;1.90;;
46308;SDS011;32037;50.820;6.494;2023-11-21T11:58:52;3.37;;;2.20;;
46308;SDS011;32037;50.820;6.494;2023-11-21T12:01:22;3.80;;;1.67;;
46308;SDS011;32037;50.820;6.494;2023-11-21T12:07:00;3.93;;;1.90;;
46308;SDS011;32037;50.820;6.494;2023-11-21T12:09:32;3.23;;;2.30;;
46308;SDS011;32037;50.820;6.494;2023-11-21T12:12:00;7.77;;;2.63;;
46308;SDS011;32037;50.820;6.494;2023-11-21T12:14:30;3.13;;;2.30;;
46308;SDS011;32037;50.820;6.494;2023-11-21T12:16:59;3.87;;;2.70;;
46308;SDS011;32037;50.820;6.494;2023-11-21T12:19:30;5.40;;;2.80;;
46308;SDS011;32037;50.820;6.494;2023-11-21T12:21:58;5.87;;;2.50;;
46308;SDS011;32037;50.820;6.494;2023-11-21T12:24:27;3.50;;;2.17;;
46308;SDS011;32037;50.820;6.494;2023-11-21T12:26:55;3.43;;;2.00;;
46308;SDS011;32037;50.820;6.494;2023-11-21T12:29:23;3.60;;;2.63;;
46308;SDS011;32037;50.820;6.494;2023-11-21T12:31:51;5.43;;;2.40;;
46308;SDS011;32037;50.820;6.494;2023-11-21T12:34:23;4.50;;;2.43;;
46308;SDS011;32037;50.820;6.494;2023-11-21T12:36:55;3.23;;;2.23;;
46308;SDS011;32037;50.820;6.494;2023-11-21T12:39:23;2.60;;;1.83;;
46308;SDS011;32037;50.820;6.494;2023-11-21T12:41:51;3.70;;;2.03;;
46308;SDS011;32037;50.820;6.494;2023-11-21T12:44:23;5.10;;;2.03;;
46308;SDS011;32037;50.820;6.494;2023-11-21T12:46:51;5.67;;;2.20;;
46308;SDS011;32037;50.820;6.494;2023-11-21T12:49:19;5.30;;;2.67;;
46308;SDS011;32037;50.820;6.494;2023-11-21T12:51:48;3.13;;;2.30;;
46308;SDS011;32037;50.820;6.494;2023-11-21T12:54:20;3.03;;;1.80;;
46308;SDS011;32037;50.820;6.494;2023-11-21T12:56:49;6.13;;;2.30;;
46308;SDS011;32037;50.820;6.494;2023-11-21T12:59:17;3.60;;;2.70;;
46308;SDS011;32037;50.820;6.494;2023-11-21T13:01:48;4.47;;;2.33;;
46308;SDS011;32037;50.820;6.494;2023-11-21T13:04:18;3.40;;;2.23;;
46308;SDS011;32037;50.820;6.494;2023-11-21T13:06:46;2.73;;;1.87;;
46308;SDS011;32037;50.820;6.494;2023-11-21T13:09:14;2.20;;;1.63;;
46308;SDS011;32037;50.820;6.494;2023-11-21T13:11:49;2.63;;;1.80;;
46308;SDS011;32037;50.820;6.494;2023-11-21T13:14:17;2.83;;;2.20;;
46308;SDS011;32037;50.820;6.494;2023-11-21T13:16:45;5.80;;;2.37;;
46308;SDS011;32037;50.820;6.494;2023-11-21T13:19:14;3.80;;;1.93;;
46308;SDS011;32037;50.820;6.494;2023-11-21T13:21:42;3.17;;;2.23;;
46308;SDS011;32037;50.820;6.494;2023-11-21T13:24:10;3.07;;;1.77;;
46308;SDS011;32037;50.820;6.494;2023-11-21T13:26:38;4.53;;;2.20;;
46308;SDS011;32037;50.820;6.494;2023-11-21T13:29:08;3.50;;;2.13;;
46308;SDS011;32037;50.820;6.494;2023-11-21T13:31:42;3.00;;;2.10;;
46308;SDS011;32037;50.820;6.494;2023-11-21T13:34:10;4.47;;;2.90;;
46308;SDS011;32037;50.820;6.494;2023-11-21T13:36:46;6.83;;;4.30;;
46308;SDS011;32037;50.820;6.494;2023-11-21T13:39:14;5.53;;;3.90;;
46308;SDS011;32037;50.820;6.494;2023-11-21T13:41:44;4.77;;;2.87;;
46308;SDS011;32037;50.820;6.494;2023-11-21T13:44:15;5.13;;;2.83;;
46308;SDS011;32037;50.820;6.494;2023-11-21T13:46:53;5.60;;;3.43;;
46308;SDS011;32037;50.820;6.494;2023-11-21T13:49:23;5.43;;;3.67;;
46308;SDS011;32037;50.820;6.494;2023-11-21T13:51:52;4.97;;;2.80;;
46308;SDS011;32037;50.820;6.494;2023-11-21T13:54:21;4.83;;;2.40;;
46308;SDS011;32037;50.820;6.494;2023-11-21T13:56:51;5.27;;;2.90;;
46308;SDS011;32037;50.820;6.494;2023-11-21T13:59:22;4.63;;;2.20;;
46308;SDS011;32037;50.820;6.494;2023-11-21T14:01:52;3.40;;;3.10;;
46308;SDS011;32037;50.820;6.494;2023-11-21T14:04:46;3.53;;;2.63;;
46308;SDS011;32037;50.820;6.494;2023-11-21T14:07:23;5.03;;;2.70;;
46308;SDS011;32037;50.820;6.494;2023-11-21T14:09:59;4.70;;;3.20;;
46308;SDS011;32037;50.820;6.494;2023-11-21T14:12:30;4.03;;;2.13;;
46308;SDS011;32037;50.820;6.494;2023-11-21T14:15:06;4.80;;;2.90;;
46308;SDS011;32037;50.820;6.494;2023-11-21T14:17:37;5.07;;;2.80;;
46308;SDS011;32037;50.820;6.494;2023-11-21T14:20:08;4.50;;;2.30;;
46308;SDS011;32037;50.820;6.494;2023-11-21T14:22:43;5.63;;;2.90;;
46308;SDS011;32037;50.820;6.494;2023-11-21T14:25:11;3.80;;;2.67;;
46308;SDS011;32037;50.820;6.494;2023-11-21T14:27:40;3.53;;;2.10;;
46308;SDS011;32037;50.820;6.494;2023-11-21T14:30:13;4.80;;;2.43;;
46308;SDS011;32037;50.820;6.494;2023-11-21T14:32:41;4.20;;;2.33;;
46308;SDS011;32037;50.820;6.494;2023-11-21T14:35:09;4.20;;;2.10;;
46308;SDS011;32037;50.820;6.494;2023-11-21T14:37:37;3.90;;;2.20;;
46308;SDS011;32037;50.820;6.494;2023-11-21T14:40:06;3.23;;;2.33;;
46308;SDS011;32037;50.820;6.494;2023-11-21T14:42:35;4.53;;;2.40;;
46308;SDS011;32037;50.820;6.494;2023-11-21T14:45:05;4.80;;;2.27;;
46308;SDS011;32037;50.820;6.494;2023-11-21T14:47:36;6.50;;;2.30;;
46308;SDS011;32037;50.820;6.494;2023-11-21T14:50:09;4.07;;;2.70;;
46308;SDS011;32037;50.820;6.494;2023-11-21T14:53:02;3.40;;;2.07;;
46308;SDS011;32037;50.820;6.494;2023-11-21T14:55:32;4.60;;;2.43;;
46308;SDS011;32037;50.820;6.494;2023-11-21T14:58:14;3.10;;;2.07;;
46308;SDS011;32037;50.820;6.494;2023-11-21T15:00:46;4.53;;;2.47;;
46308;SDS011;32037;50.820;6.494;2023-11-21T15:03:21;2.63;;;1.80;;
46308;SDS011;32037;50.820;6.494;2023-11-21T15:06:07;3.37;;;2.20;;
46308;SDS011;32037;50.820;6.494;2023-11-21T15:08:53;2.63;;;2.10;;